createdAt,value
2023-05-14T00:01:01.144Z,11.30
2023-05-14T00:03:28.689Z,12.60
2023-05-14T00:05:56.471Z,11.50
2023-05-14T00:08:24.132Z,10.80
2023-05-14T00:10:51.482Z,10.20
2023-05-14T00:13:18.958Z,9.50
2023-05-14T00:15:46.775Z,8.80
2023-05-14T00:18:14.474Z,9.10
2023-05-14T00:20:41.869Z,8.80
2023-05-14T00:23:09.698Z,9.00
2023-05-14T00:25:37.349Z,8.90
2023-05-14T00:28:04.938Z,8.80
2023-05-14T00:30:33.230Z,9.50
2023-05-14T00:33:01.653Z,9.50
2023-05-14T00:35:29.548Z,9.60
2023-05-14T00:37:57.398Z,11.10
2023-05-14T00:40:26.194Z,10.50
2023-05-14T00:42:54.573Z,9.60
2023-05-14T00:45:22.228Z,8.70
2023-05-14T00:47:49.950Z,7.40
2023-05-14T00:50:17.753Z,6.50
2023-05-14T00:52:45.316Z,6.50
2023-05-14T00:55:16.619Z,6.70
2023-05-14T00:57:44.638Z,5.70
2023-05-14T01:00:12.915Z,6.40
2023-05-14T01:02:40.850Z,6.00
2023-05-14T01:05:09.567Z,6.10
2023-05-14T01:07:46.547Z,5.70
2023-05-14T01:10:17.606Z,5.90
2023-05-14T01:13:21.903Z,6.10
2023-05-14T01:15:49.458Z,5.60
2023-05-14T01:18:18.858Z,7.50
2023-05-14T01:20:46.458Z,8.30
2023-05-14T01:23:14.186Z,8.20
2023-05-14T01:25:41.640Z,8.80
2023-05-14T01:28:11.962Z,9.30
2023-05-14T01:31:02.052Z,7.90
2023-05-14T01:33:30.137Z,7.40
2023-05-14T01:35:58.905Z,4.50
2023-05-14T01:38:26.470Z,5.50
2023-05-14T01:40:54.048Z,5.10
2023-05-14T01:43:21.999Z,4.70
2023-05-14T01:45:49.586Z,4.30
2023-05-14T01:48:17.642Z,4.30
2023-05-14T01:50:45.121Z,6.40
2023-05-14T01:53:12.550Z,5.80
2023-05-14T01:55:40.299Z,6.50
2023-05-14T01:58:07.626Z,8.20
2023-05-14T02:00:35.210Z,8.50
2023-05-14T02:03:02.717Z,6.70
2023-05-14T02:05:30.221Z,6.50
2023-05-14T02:07:57.635Z,5.70
2023-05-14T02:10:25.445Z,5.80
2023-05-14T02:12:53.518Z,4.90
2023-05-14T02:15:21.198Z,4.70
2023-05-14T02:17:48.787Z,5.30
2023-05-14T02:20:18.247Z,4.60
2023-05-14T02:22:46.533Z,4.40
2023-05-14T02:25:14.431Z,4.30
2023-05-14T02:27:41.972Z,7.00
2023-05-14T02:30:10.625Z,6.10
2023-05-14T02:32:39.577Z,7.00
2023-05-14T02:35:07.797Z,5.70
2023-05-14T02:37:35.471Z,11.20
2023-05-14T02:40:02.932Z,7.30
2023-05-14T02:42:30.375Z,9.40
2023-05-14T02:44:58.145Z,14.30
2023-05-14T02:47:25.470Z,9.50
2023-05-14T02:49:53.001Z,12.00
2023-05-14T02:52:20.850Z,9.80
2023-05-14T02:54:48.480Z,9.60
2023-05-14T02:57:16.139Z,11.30
2023-05-14T02:59:43.799Z,11.90
2023-05-14T03:02:11.433Z,12.80
2023-05-14T03:04:39.125Z,10.70
2023-05-14T03:07:06.682Z,13.70
2023-05-14T03:09:35.435Z,10.30
2023-05-14T03:12:05.911Z,14.10
2023-05-14T03:14:33.353Z,12.90
2023-05-14T03:17:00.947Z,16.10
2023-05-14T03:19:28.884Z,14.40
2023-05-14T03:21:57.361Z,15.70
2023-05-14T03:24:25.026Z,11.80
2023-05-14T03:26:53.400Z,25.90
2023-05-14T03:29:20.981Z,43.20
2023-05-14T03:31:48.522Z,34.20
2023-05-14T03:34:16.214Z,33.10
2023-05-14T03:36:43.738Z,18.60
2023-05-14T03:39:11.299Z,23.00
2023-05-14T03:41:39.597Z,20.70
2023-05-14T03:44:07.134Z,44.00
2023-05-14T03:46:34.794Z,16.40
2023-05-14T03:49:02.594Z,11.70
2023-05-14T03:51:30.133Z,9.90
2023-05-14T03:53:58.606Z,8.60
2023-05-14T03:56:26.669Z,6.60
2023-05-14T03:58:54.130Z,7.60
2023-05-14T04:01:21.787Z,8.30
2023-05-14T04:03:49.589Z,6.50
2023-05-14T04:06:17.424Z,12.10
2023-05-14T04:08:44.939Z,7.20
2023-05-14T04:11:12.185Z,12.30
2023-05-14T04:13:39.792Z,20.80
2023-05-14T04:16:07.495Z,32.50
2023-05-14T04:18:36.207Z,44.20
2023-05-14T04:21:04.002Z,12.30
2023-05-14T04:23:32.388Z,12.00
2023-05-14T04:25:59.846Z,11.70
2023-05-14T04:28:27.409Z,15.30
2023-05-14T04:30:54.934Z,18.80
2023-05-14T04:33:22.619Z,7.90
2023-05-14T04:35:50.000Z,7.90
2023-05-14T04:38:17.324Z,6.50
2023-05-14T04:40:44.672Z,4.80
2023-05-14T04:43:12.143Z,4.60
2023-05-14T04:45:41.326Z,5.00
2023-05-14T04:48:09.060Z,7.40
2023-05-14T04:50:36.649Z,4.30
2023-05-14T04:53:04.007Z,4.30
2023-05-14T04:55:31.883Z,4.70
2023-05-14T04:57:59.223Z,3.90
2023-05-14T05:00:27.317Z,5.10
2023-05-14T05:02:55.426Z,4.90
2023-05-14T05:05:23.241Z,4.40
2023-05-14T05:07:50.897Z,4.40
2023-05-14T05:10:18.559Z,5.40
2023-05-14T05:12:46.229Z,4.10
2023-05-14T05:15:13.709Z,5.30
2023-05-14T05:17:41.573Z,4.70
2023-05-14T05:20:10.399Z,7.30
2023-05-14T05:22:37.909Z,16.80
2023-05-14T05:25:06.709Z,8.90
2023-05-14T05:27:34.345Z,7.10
2023-05-14T05:30:02.309Z,6.30
2023-05-14T05:32:30.286Z,7.60
2023-05-14T05:34:58.067Z,7.30
2023-05-14T05:37:25.643Z,7.60
2023-05-14T05:39:54.403Z,7.80
2023-05-14T05:42:22.968Z,6.70
2023-05-14T05:50:26.426Z,6.80
2023-05-14T05:52:54.167Z,8.00
2023-05-14T05:55:22.697Z,10.90
2023-05-14T05:57:50.511Z,9.00
2023-05-14T06:00:19.578Z,12.10
2023-05-14T06:02:47.224Z,20.10
2023-05-14T06:05:15.106Z,17.30
2023-05-14T06:07:42.694Z,13.10
2023-05-14T06:10:10.255Z,22.20
2023-05-14T06:12:37.917Z,20.50
2023-05-14T06:15:06.191Z,30.60
2023-05-14T06:17:33.580Z,36.80
2023-05-14T06:20:01.283Z,35.70
2023-05-14T06:22:28.767Z,34.50
2023-05-14T06:24:56.224Z,32.00
2023-05-14T06:27:23.898Z,22.60
2023-05-14T06:29:51.496Z,14.10
2023-05-14T06:32:19.078Z,8.30
2023-05-14T06:34:46.766Z,7.30
2023-05-14T06:37:13.962Z,6.40
2023-05-14T06:39:46.797Z,5.50
2023-05-14T06:42:14.251Z,5.20
2023-05-14T06:44:42.220Z,6.60
2023-05-14T06:47:09.785Z,6.60
2023-05-14T06:49:37.133Z,6.10
2023-05-14T06:52:05.241Z,6.40
2023-05-14T06:54:32.968Z,5.60
2023-05-14T06:57:00.634Z,5.20
2023-05-14T06:59:28.094Z,5.20
2023-05-14T07:01:55.993Z,6.10
2023-05-14T07:04:23.629Z,5.80
2023-05-14T07:06:51.278Z,5.80
2023-05-14T07:09:18.746Z,6.00
2023-05-14T07:11:46.296Z,5.10
2023-05-14T07:14:13.645Z,5.50
2023-05-14T07:16:42.080Z,4.80
2023-05-14T07:19:09.601Z,7.20
2023-05-14T07:21:37.145Z,5.00
2023-05-14T07:24:05.320Z,5.80
2023-05-14T07:26:33.013Z,6.30
2023-05-14T07:29:00.702Z,6.20
2023-05-14T07:31:29.389Z,7.00
2023-05-14T07:33:57.396Z,6.80
2023-05-14T07:36:25.391Z,10.20
2023-05-14T07:38:52.922Z,8.30
2023-05-14T07:41:20.121Z,9.10
2023-05-14T07:43:47.556Z,7.80
2023-05-14T07:46:15.347Z,10.50
2023-05-14T07:48:43.004Z,11.10
2023-05-14T07:51:10.821Z,13.90
2023-05-14T07:53:38.378Z,18.70
2023-05-14T07:56:06.960Z,9.90
2023-05-14T07:58:35.447Z,9.20
2023-05-14T08:01:07.358Z,6.80
2023-05-14T08:03:35.359Z,9.70
2023-05-14T08:06:04.268Z,8.30
2023-05-14T08:08:31.938Z,6.50
2023-05-14T08:10:59.754Z,7.90
2023-05-14T08:13:27.455Z,8.50
2023-05-14T08:15:55.939Z,7.30
2023-05-14T08:18:23.503Z,5.80
2023-05-14T08:20:51.672Z,5.30
2023-05-14T08:23:19.237Z,5.80
2023-05-14T08:25:46.681Z,6.20
2023-05-14T08:28:14.007Z,10.80
2023-05-14T08:30:41.487Z,11.70
2023-05-14T08:33:09.229Z,8.00
2023-05-14T08:35:37.025Z,5.50
2023-05-14T08:38:04.433Z,5.30
2023-05-14T08:40:32.256Z,6.50
2023-05-14T08:42:59.930Z,7.40
2023-05-14T08:45:34.617Z,4.90
2023-05-14T08:48:02.541Z,4.20
2023-05-14T08:50:30.987Z,4.10
2023-05-14T08:52:59.244Z,6.30
2023-05-14T08:55:27.233Z,5.10
2023-05-14T08:57:54.891Z,8.80
2023-05-14T09:00:23.494Z,13.80
2023-05-14T09:02:51.096Z,12.10
2023-05-14T09:05:19.409Z,12.50
2023-05-14T09:07:46.989Z,6.20
2023-05-14T09:10:16.012Z,7.00
2023-05-14T09:12:43.726Z,7.20
2023-05-14T09:15:11.382Z,6.30
2023-05-14T09:17:39.194Z,3.50
2023-05-14T09:20:07.833Z,3.40
2023-05-14T09:22:35.124Z,3.90
2023-05-14T09:25:14.863Z,4.80
2023-05-14T09:27:42.394Z,4.70
2023-05-14T09:30:13.851Z,4.40
2023-05-14T09:32:46.377Z,3.20
2023-05-14T09:35:24.423Z,2.50
2023-05-14T09:37:53.618Z,3.60
2023-05-14T09:40:22.676Z,5.90
2023-05-14T09:42:51.083Z,5.20
2023-05-14T09:45:18.656Z,3.50
2023-05-14T09:47:46.184Z,4.70
2023-05-14T09:50:13.868Z,5.30
2023-05-14T09:52:41.535Z,4.20
2023-05-14T09:55:10.243Z,4.10
2023-05-14T09:57:37.872Z,3.30
2023-05-14T10:00:09.529Z,3.40
2023-05-14T10:02:41.705Z,2.90
2023-05-14T10:05:10.795Z,2.80
2023-05-14T10:07:47.415Z,2.90
2023-05-14T10:10:17.282Z,3.50
2023-05-14T10:12:48.246Z,5.50
2023-05-14T10:15:22.372Z,3.70
2023-05-14T10:17:52.477Z,4.00
2023-05-14T10:20:20.240Z,3.30
2023-05-14T10:22:48.079Z,3.40
2023-05-14T10:25:15.748Z,2.90
2023-05-14T10:27:43.203Z,2.90
2023-05-14T10:30:13.052Z,3.00
2023-05-14T10:32:42.323Z,3.10
2023-05-14T10:35:22.773Z,3.10
2023-05-14T10:37:51.660Z,3.10
2023-05-14T10:40:20.586Z,2.80
2023-05-14T10:42:48.208Z,2.90
2023-05-14T10:45:16.077Z,3.40
2023-05-14T10:47:44.750Z,3.00
2023-05-14T10:50:13.553Z,2.90
2023-05-14T10:52:42.754Z,3.20
2023-05-14T10:55:13.271Z,3.20
2023-05-14T10:57:42.290Z,2.90
2023-05-14T11:00:11.086Z,3.30
2023-05-14T11:02:40.060Z,3.10
2023-05-14T11:05:09.437Z,2.50
2023-05-14T11:07:47.328Z,2.70
2023-05-14T11:10:26.264Z,2.80
2023-05-14T11:12:54.114Z,3.30
2023-05-14T11:15:22.699Z,3.80
2023-05-14T11:17:51.162Z,3.00
2023-05-14T11:20:19.110Z,3.80
2023-05-14T11:22:47.465Z,4.20
2023-05-14T11:25:15.312Z,3.60
2023-05-14T11:27:46.868Z,2.90
2023-05-14T11:30:20.678Z,3.40
2023-05-14T11:32:48.948Z,4.10
2023-05-14T11:35:17.265Z,3.00
2023-05-14T11:37:51.061Z,3.20
2023-05-14T11:40:18.802Z,3.60
2023-05-14T11:42:46.365Z,2.80
2023-05-14T11:45:14.399Z,3.00
2023-05-14T11:47:42.967Z,2.80
2023-05-14T11:50:11.388Z,2.50
2023-05-14T11:52:40.689Z,2.90
2023-05-14T11:55:12.572Z,3.70
2023-05-14T11:57:41.309Z,2.70
2023-05-14T12:00:13.700Z,3.00
2023-05-14T12:02:41.364Z,2.90
2023-05-14T12:05:11.728Z,2.90
2023-05-14T12:07:39.357Z,2.90
2023-05-14T12:10:07.245Z,3.10
2023-05-14T12:12:36.419Z,5.90
2023-05-14T12:15:11.666Z,3.00
2023-05-14T12:17:40.078Z,2.90
2023-05-14T12:20:11.833Z,3.30
2023-05-14T12:22:39.661Z,3.30
2023-05-14T12:25:12.573Z,2.60
2023-05-14T12:27:39.964Z,3.70
2023-05-14T12:32:41.536Z,4.40
2023-05-14T12:35:10.176Z,3.20
2023-05-14T12:37:40.139Z,2.90
2023-05-14T12:40:09.832Z,3.40
2023-05-14T12:42:37.434Z,10.80
2023-05-14T12:45:08.279Z,10.70
2023-05-14T12:47:36.610Z,12.10
2023-05-14T12:50:04.929Z,12.30
2023-05-14T12:52:38.452Z,7.80
2023-05-14T12:55:10.492Z,4.70
2023-05-14T12:57:39.515Z,3.40
2023-05-14T13:00:12.212Z,4.00
2023-05-14T13:02:42.380Z,3.30
2023-05-14T13:05:12.121Z,3.40
2023-05-14T13:07:40.266Z,3.80
2023-05-14T13:10:08.604Z,3.40
2023-05-14T13:12:35.831Z,3.00
2023-05-14T13:15:03.710Z,3.20
2023-05-14T13:17:31.543Z,2.70
2023-05-14T13:19:58.990Z,2.50
2023-05-14T13:22:26.695Z,2.40
2023-05-14T13:24:54.510Z,2.70
2023-05-14T13:27:21.860Z,2.90
2023-05-14T13:29:49.425Z,2.70
2023-05-14T13:32:16.795Z,2.30
2023-05-14T13:34:44.649Z,2.20
2023-05-14T13:37:12.302Z,3.10
2023-05-14T13:39:41.099Z,2.90
2023-05-14T13:42:08.684Z,3.30
2023-05-14T13:44:36.416Z,3.70
2023-05-14T13:47:05.026Z,5.40
2023-05-14T13:49:32.459Z,7.30
2023-05-14T13:52:00.157Z,4.70
2023-05-14T13:54:27.894Z,6.10
2023-05-14T13:56:55.850Z,5.60
2023-05-14T13:59:24.229Z,6.00
2023-05-14T14:01:51.900Z,5.00
2023-05-14T14:04:20.163Z,4.80
2023-05-14T14:06:47.634Z,6.70
2023-05-14T14:09:14.991Z,6.50
2023-05-14T14:11:42.287Z,10.50
2023-05-14T14:14:09.991Z,14.30
2023-05-14T14:16:37.640Z,41.10
2023-05-14T14:19:05.694Z,11.20
2023-05-14T14:21:34.450Z,10.00
2023-05-14T14:24:02.804Z,10.90
2023-05-14T14:26:30.168Z,11.20
2023-05-14T14:28:57.626Z,11.90
2023-05-14T14:31:25.437Z,12.70
2023-05-14T14:33:53.123Z,11.40
2023-05-14T14:36:20.990Z,11.70
2023-05-14T14:38:48.652Z,12.50
2023-05-14T14:41:16.735Z,10.20
2023-05-14T14:43:44.386Z,10.90
2023-05-14T14:46:11.998Z,11.30
2023-05-14T14:48:40.117Z,11.90
2023-05-14T14:51:09.110Z,10.90
2023-05-14T14:53:36.739Z,9.80
2023-05-14T14:56:05.060Z,9.90
2023-05-14T14:58:32.883Z,11.30
2023-05-14T15:01:00.419Z,9.10
2023-05-14T15:03:28.049Z,10.00
2023-05-14T15:05:55.710Z,11.00
2023-05-14T15:08:27.781Z,11.80
2023-05-14T15:10:56.342Z,12.60
2023-05-14T15:13:24.904Z,13.60
2023-05-14T15:15:52.905Z,8.40
2023-05-14T15:18:20.896Z,8.40
2023-05-14T15:20:48.628Z,6.60
2023-05-14T15:23:16.197Z,6.50
2023-05-14T15:25:43.951Z,5.30
2023-05-14T15:28:11.714Z,6.00
2023-05-14T15:30:39.696Z,5.60
2023-05-14T15:33:10.694Z,5.20
2023-05-14T15:38:06.252Z,4.60
2023-05-14T15:40:35.360Z,4.40
2023-05-14T15:43:03.020Z,4.70
2023-05-14T15:45:30.673Z,3.80
2023-05-14T15:47:58.178Z,3.80
2023-05-14T15:50:27.646Z,3.80
2023-05-14T15:52:55.198Z,4.00
2023-05-14T15:55:22.758Z,4.20
2023-05-14T15:57:50.310Z,3.70
2023-05-14T16:00:18.291Z,7.10
2023-05-14T16:02:45.893Z,11.30
2023-05-14T16:05:13.911Z,6.50
2023-05-14T16:07:42.389Z,5.90
2023-05-14T16:10:10.797Z,6.60
2023-05-14T16:12:38.834Z,8.60
2023-05-14T16:15:08.158Z,6.30
2023-05-14T16:17:36.321Z,6.30
2023-05-14T16:20:05.407Z,4.30
2023-05-14T16:22:34.916Z,5.70
2023-05-14T16:25:03.494Z,4.60
2023-05-14T16:27:31.907Z,4.60
2023-05-14T16:29:59.333Z,6.00
2023-05-14T16:32:27.990Z,6.30
2023-05-14T16:34:56.660Z,5.00
2023-05-14T16:37:24.568Z,4.70
2023-05-14T16:39:52.224Z,5.60
2023-05-14T16:42:19.893Z,7.00
2023-05-14T16:44:47.236Z,7.90
2023-05-14T16:47:15.019Z,6.60
2023-05-14T16:49:42.454Z,5.50
2023-05-14T16:52:10.112Z,5.50
2023-05-14T16:54:37.674Z,4.80
2023-05-14T16:57:06.221Z,5.70
2023-05-14T16:59:35.067Z,5.30
2023-05-14T17:02:03.041Z,3.40
2023-05-14T17:04:32.041Z,3.50
2023-05-14T17:06:59.474Z,3.40
2023-05-14T17:09:27.041Z,3.90
2023-05-14T17:11:55.907Z,3.50
2023-05-14T17:14:23.372Z,3.60
2023-05-14T17:16:51.122Z,3.70
2023-05-14T17:19:18.683Z,3.30
2023-05-14T17:21:46.248Z,3.10
2023-05-14T17:24:13.805Z,3.30
2023-05-14T17:26:41.370Z,4.10
2023-05-14T17:29:09.125Z,4.50
2023-05-14T17:31:36.953Z,3.90
2023-05-14T17:34:04.341Z,4.80
2023-05-14T17:36:32.728Z,3.60
2023-05-14T17:39:00.424Z,4.60
2023-05-14T17:41:27.945Z,4.70
2023-05-14T17:43:55.602Z,4.90
2023-05-14T17:46:23.671Z,4.80
2023-05-14T17:48:51.235Z,4.80
2023-05-14T17:51:18.602Z,7.00
2023-05-14T17:53:46.568Z,7.20
2023-05-14T17:56:14.035Z,6.00
2023-05-14T17:58:41.791Z,6.10
2023-05-14T18:01:09.495Z,5.00
2023-05-14T18:03:37.218Z,4.80
2023-05-14T18:06:05.084Z,4.50
2023-05-14T18:08:33.385Z,5.20
2023-05-14T18:11:01.231Z,5.40
2023-05-14T18:13:29.206Z,9.50
2023-05-14T18:15:56.969Z,9.30
2023-05-14T18:18:24.949Z,13.20
2023-05-14T18:20:52.740Z,13.00
2023-05-14T18:23:20.331Z,14.40
2023-05-14T18:25:48.636Z,13.80
2023-05-14T18:28:16.305Z,14.70
2023-05-14T18:30:43.888Z,18.80
2023-05-14T18:33:12.865Z,20.90
2023-05-14T18:35:43.993Z,25.10
2023-05-14T18:38:14.415Z,34.00
2023-05-14T18:40:41.881Z,37.90
2023-05-14T18:43:09.743Z,37.00
2023-05-14T18:45:37.401Z,34.70
2023-05-14T18:48:05.625Z,30.70
2023-05-14T18:50:33.133Z,25.00
2023-05-14T18:53:00.501Z,22.90
2023-05-14T18:55:28.051Z,19.60
2023-05-14T18:57:55.930Z,21.20
2023-05-14T19:00:23.473Z,31.20
2023-05-14T19:02:52.160Z,46.70
2023-05-14T19:05:20.106Z,56.00
2023-05-14T19:07:49.116Z,62.50
2023-05-14T19:10:16.600Z,58.70
2023-05-14T19:12:44.341Z,60.40
2023-05-14T19:15:12.208Z,65.90
2023-05-14T19:17:39.904Z,67.80
2023-05-14T19:20:08.981Z,53.10
2023-05-14T19:22:36.521Z,42.30
2023-05-14T19:25:05.157Z,36.90
2023-05-14T19:27:34.403Z,71.90
2023-05-14T19:30:01.983Z,67.90
2023-05-14T19:32:29.779Z,32.80
2023-05-14T19:34:57.501Z,22.70
2023-05-14T19:37:25.150Z,22.60
2023-05-14T19:39:52.636Z,22.60
2023-05-14T19:42:20.164Z,17.10
2023-05-14T19:44:47.747Z,13.10
2023-05-14T19:47:15.277Z,9.70
2023-05-14T19:49:43.250Z,10.40
2023-05-14T19:52:11.765Z,9.30
2023-05-14T19:54:39.194Z,9.40
2023-05-14T19:57:06.802Z,9.30
2023-05-14T19:59:34.920Z,9.70
2023-05-14T20:02:02.611Z,8.40
2023-05-14T20:04:30.040Z,9.00
2023-05-14T20:06:58.215Z,12.10
2023-05-14T20:09:26.294Z,13.90
2023-05-14T20:11:53.646Z,12.50
2023-05-14T20:14:21.111Z,8.70
2023-05-14T20:16:49.298Z,8.10
2023-05-14T20:19:17.000Z,7.70
2023-05-14T20:21:44.802Z,6.00
2023-05-14T20:24:12.261Z,5.90
2023-05-14T20:26:39.817Z,6.10
2023-05-14T20:29:07.167Z,5.30
2023-05-14T20:31:35.554Z,5.50
2023-05-14T20:34:03.922Z,5.10
2023-05-14T20:36:32.092Z,5.10
2023-05-14T20:39:00.889Z,5.00
2023-05-14T20:41:28.649Z,5.30
2023-05-14T20:43:56.104Z,4.80
2023-05-14T20:46:23.583Z,6.20
2023-05-14T20:48:52.143Z,5.40
2023-05-14T20:51:19.602Z,6.20
2023-05-14T20:53:47.059Z,6.90
2023-05-14T20:56:14.720Z,6.60
2023-05-14T20:58:42.378Z,7.50
2023-05-14T21:01:10.052Z,5.80
2023-05-14T21:03:37.860Z,7.30
2023-05-14T21:06:05.674Z,7.30
2023-05-14T21:08:35.068Z,7.10
2023-05-14T21:11:02.540Z,7.70
2023-05-14T21:13:29.890Z,7.10
2023-05-14T21:15:57.494Z,7.90
2023-05-14T21:18:27.375Z,9.30
2023-05-14T21:20:55.121Z,10.30
2023-05-14T21:23:22.893Z,10.40
2023-05-14T21:25:50.652Z,10.30
2023-05-14T21:28:18.032Z,9.40
2023-05-14T21:30:47.132Z,10.30
2023-05-14T21:33:16.024Z,10.20
2023-05-14T21:35:43.759Z,11.80
2023-05-14T21:38:11.176Z,12.00
2023-05-14T21:40:38.668Z,10.80
2023-05-14T21:43:06.231Z,10.70
2023-05-14T21:45:33.476Z,8.30
2023-05-14T21:48:01.012Z,6.80
2023-05-14T21:50:28.594Z,7.20
2023-05-14T21:52:56.137Z,6.70
2023-05-14T21:55:24.014Z,6.10
2023-05-14T21:57:51.579Z,6.20
2023-05-14T22:00:23.745Z,5.90
2023-05-14T22:02:52.123Z,5.50
2023-05-14T22:05:20.633Z,5.80
2023-05-14T22:07:49.089Z,6.00
2023-05-14T22:10:16.749Z,5.50
2023-05-14T22:12:44.508Z,7.30
2023-05-14T22:15:12.893Z,6.60
2023-05-14T22:17:40.691Z,5.80
2023-05-14T22:20:10.378Z,6.70
2023-05-14T22:22:38.027Z,6.00
2023-05-14T22:25:06.515Z,6.50
2023-05-14T22:27:33.961Z,6.70
2023-05-14T22:30:01.624Z,6.50
2023-05-14T22:32:29.136Z,7.10
2023-05-14T22:34:56.844Z,21.90
2023-05-14T22:37:24.410Z,9.20
2023-05-14T22:39:52.079Z,5.90
2023-05-14T22:42:20.475Z,5.60
2023-05-14T22:44:48.003Z,5.80
2023-05-14T22:47:16.070Z,5.80
2023-05-14T22:49:43.964Z,6.00
2023-05-14T22:52:11.606Z,6.00
2023-05-14T22:54:38.955Z,6.30
2023-05-14T22:57:07.126Z,5.70
2023-05-14T22:59:34.620Z,4.50
2023-05-14T23:02:02.291Z,5.40
2023-05-14T23:04:30.145Z,5.50
2023-05-14T23:06:58.294Z,5.20
2023-05-14T23:09:25.746Z,5.40
2023-05-14T23:11:53.299Z,4.30
2023-05-14T23:14:21.473Z,4.80
2023-05-14T23:16:48.932Z,4.30
2023-05-14T23:19:16.823Z,3.80
2023-05-14T23:21:44.767Z,3.70
2023-05-14T23:24:12.430Z,4.00
2023-05-14T23:26:39.782Z,3.80
2023-05-14T23:29:07.570Z,4.30
2023-05-14T23:31:36.469Z,3.70
2023-05-14T23:34:04.004Z,3.60
2023-05-14T23:36:31.668Z,3.80
2023-05-14T23:38:59.417Z,3.70
2023-05-14T23:41:26.981Z,4.30
2023-05-14T23:43:55.571Z,3.70
2023-05-14T23:46:23.228Z,3.80
2023-05-14T23:48:52.428Z,3.40
2023-05-14T23:51:20.090Z,3.80
2023-05-14T23:53:48.452Z,3.50
2023-05-14T23:56:16.224Z,3.30
2023-05-14T23:58:43.799Z,3.50
